Copenhagen, Denmark
Current Conditions -  °F | °C
As of 3:20 PM on Saturday 25 Oct 2014 (Local Time) from EKCH Reporting Station
Broken Clouds Broken Clouds  
Wind Chill: 52°   Ceiling: 800
Heat Index: 52°   Visibility: 4mi
Dew Point: 50°   Wind: 13mph
Humidity: 94%   Direction: 210°SSW
Pressure: 30"   Gusts: NA
Location:  55.68°N, 12.57°E
Report Text: EKCH 251320Z 21011KT 7000 FEW006 BKN008 11/10 Q1016 BECMG4000
Loading
Personal Weather Stations






























Interactive Weather Map
Tropical Storm Tracking
New forecast layout! Learn more

10-Day Weather Forecast

Advertisements
Track Severe Weather on mobile